sensor_id;sensor_type;location;lat;lon;timestamp;P1;durP1;ratioP1;P2;durP2;ratioP2
4700;SDS011;8724;51.272;6.554;2023-02-26T00:01:39;7.10;;;2.40;;
4700;SDS011;8724;51.272;6.554;2023-02-26T00:04:08;6.90;;;3.07;;
4700;SDS011;8724;51.272;6.554;2023-02-26T00:06:38;6.83;;;3.50;;
4700;SDS011;8724;51.272;6.554;2023-02-26T00:09:23;6.00;;;3.03;;
4700;SDS011;8724;51.272;6.554;2023-02-26T00:11:52;7.50;;;3.77;;
4700;SDS011;8724;51.272;6.554;2023-02-26T00:14:21;2.70;;;2.50;;
4700;SDS011;8724;51.272;6.554;2023-02-26T00:16:52;7.70;;;3.47;;
4700;SDS011;8724;51.272;6.554;2023-02-26T00:19:34;4.43;;;2.90;;
4700;SDS011;8724;51.272;6.554;2023-02-26T00:22:03;6.57;;;2.80;;
4700;SDS011;8724;51.272;6.554;2023-02-26T00:24:33;3.40;;;2.20;;
4700;SDS011;8724;51.272;6.554;2023-02-26T00:27:01;5.60;;;3.00;;
4700;SDS011;8724;51.272;6.554;2023-02-26T00:29:30;4.80;;;2.27;;
4700;SDS011;8724;51.272;6.554;2023-02-26T00:31:59;5.80;;;2.70;;
4700;SDS011;8724;51.272;6.554;2023-02-26T00:34:29;5.67;;;2.60;;
4700;SDS011;8724;51.272;6.554;2023-02-26T00:37:02;3.47;;;2.13;;
4700;SDS011;8724;51.272;6.554;2023-02-26T00:39:43;4.50;;;2.20;;
4700;SDS011;8724;51.272;6.554;2023-02-26T00:42:18;5.07;;;2.27;;
4700;SDS011;8724;51.272;6.554;2023-02-26T00:44:47;3.00;;;2.00;;
4700;SDS011;8724;51.272;6.554;2023-02-26T00:47:17;3.90;;;2.37;;
4700;SDS011;8724;51.272;6.554;2023-02-26T00:49:55;4.30;;;2.77;;
4700;SDS011;8724;51.272;6.554;2023-02-26T00:52:35;4.07;;;2.00;;
4700;SDS011;8724;51.272;6.554;2023-02-26T00:55:10;3.37;;;2.30;;
4700;SDS011;8724;51.272;6.554;2023-02-26T00:57:38;3.73;;;2.20;;
4700;SDS011;8724;51.272;6.554;2023-02-26T01:00:07;3.20;;;2.00;;
4700;SDS011;8724;51.272;6.554;2023-02-26T01:02:37;3.87;;;1.80;;
4700;SDS011;8724;51.272;6.554;2023-02-26T01:05:07;5.07;;;2.07;;
4700;SDS011;8724;51.272;6.554;2023-02-26T01:07:39;3.27;;;2.20;;
4700;SDS011;8724;51.272;6.554;2023-02-26T01:10:13;8.43;;;3.23;;
4700;SDS011;8724;51.272;6.554;2023-02-26T01:12:41;3.50;;;2.00;;
4700;SDS011;8724;51.272;6.554;2023-02-26T01:15:11;6.20;;;2.00;;
4700;SDS011;8724;51.272;6.554;2023-02-26T01:17:41;4.33;;;2.50;;
4700;SDS011;8724;51.272;6.554;2023-02-26T01:20:15;3.73;;;2.00;;
4700;SDS011;8724;51.272;6.554;2023-02-26T01:22:48;3.07;;;2.40;;
4700;SDS011;8724;51.272;6.554;2023-02-26T01:25:23;3.73;;;1.73;;
4700;SDS011;8724;51.272;6.554;2023-02-26T01:27:54;2.93;;;1.93;;
4700;SDS011;8724;51.272;6.554;2023-02-26T01:30:23;3.40;;;2.10;;
4700;SDS011;8724;51.272;6.554;2023-02-26T01:32:53;4.53;;;1.87;;
4700;SDS011;8724;51.272;6.554;2023-02-26T01:35:31;4.97;;;2.30;;
4700;SDS011;8724;51.272;6.554;2023-02-26T01:38:06;2.93;;;2.13;;
4700;SDS011;8724;51.272;6.554;2023-02-26T01:40:52;2.93;;;1.60;;
4700;SDS011;8724;51.272;6.554;2023-02-26T01:43:42;2.00;;;1.43;;
4700;SDS011;8724;51.272;6.554;2023-02-26T01:46:17;5.30;;;1.83;;
4700;SDS011;8724;51.272;6.554;2023-02-26T01:48:53;3.20;;;1.83;;
4700;SDS011;8724;51.272;6.554;2023-02-26T01:51:39;3.90;;;1.87;;
4700;SDS011;8724;51.272;6.554;2023-02-26T01:54:12;2.10;;;1.30;;
4700;SDS011;8724;51.272;6.554;2023-02-26T01:56:44;5.13;;;1.63;;
4700;SDS011;8724;51.272;6.554;2023-02-26T01:59:17;5.03;;;1.80;;
4700;SDS011;8724;51.272;6.554;2023-02-26T02:01:50;3.37;;;1.93;;
4700;SDS011;8724;51.272;6.554;2023-02-26T02:04:20;3.93;;;1.83;;
4700;SDS011;8724;51.272;6.554;2023-02-26T02:06:50;2.90;;;1.87;;
4700;SDS011;8724;51.272;6.554;2023-02-26T02:09:19;2.33;;;1.57;;
4700;SDS011;8724;51.272;6.554;2023-02-26T02:11:55;2.23;;;1.60;;
4700;SDS011;8724;51.272;6.554;2023-02-26T02:14:37;7.70;;;2.30;;
4700;SDS011;8724;51.272;6.554;2023-02-26T02:17:15;4.80;;;1.90;;
4700;SDS011;8724;51.272;6.554;2023-02-26T02:19:54;3.93;;;1.80;;
4700;SDS011;8724;51.272;6.554;2023-02-26T02:22:51;5.50;;;1.67;;
4700;SDS011;8724;51.272;6.554;2023-02-26T02:28:32;2.10;;;1.70;;
4700;SDS011;8724;51.272;6.554;2023-02-26T02:31:10;6.17;;;1.90;;
4700;SDS011;8724;51.272;6.554;2023-02-26T02:33:44;1.80;;;1.20;;
4700;SDS011;8724;51.272;6.554;2023-02-26T02:36:19;4.00;;;1.73;;
4700;SDS011;8724;51.272;6.554;2023-02-26T02:38:51;2.40;;;1.37;;
4700;SDS011;8724;51.272;6.554;2023-02-26T02:41:25;3.63;;;1.50;;
4700;SDS011;8724;51.272;6.554;2023-02-26T02:43:57;6.03;;;1.30;;
4700;SDS011;8724;51.272;6.554;2023-02-26T02:46:30;2.60;;;1.53;;
4700;SDS011;8724;51.272;6.554;2023-02-26T02:49:03;2.37;;;1.70;;
4700;SDS011;8724;51.272;6.554;2023-02-26T02:51:35;3.03;;;1.80;;
4700;SDS011;8724;51.272;6.554;2023-02-26T02:54:07;3.13;;;1.70;;
4700;SDS011;8724;51.272;6.554;2023-02-26T02:56:40;3.60;;;1.40;;
4700;SDS011;8724;51.272;6.554;2023-02-26T02:59:14;1.90;;;1.60;;
4700;SDS011;8724;51.272;6.554;2023-02-26T03:01:47;1.77;;;1.40;;
4700;SDS011;8724;51.272;6.554;2023-02-26T03:04:18;2.67;;;1.50;;
4700;SDS011;8724;51.272;6.554;2023-02-26T03:06:47;2.70;;;2.23;;
4700;SDS011;8724;51.272;6.554;2023-02-26T03:09:17;4.27;;;1.30;;
4700;SDS011;8724;51.272;6.554;2023-02-26T03:11:45;1.53;;;1.40;;
4700;SDS011;8724;51.272;6.554;2023-02-26T03:14:14;1.70;;;1.47;;
4700;SDS011;8724;51.272;6.554;2023-02-26T03:16:54;4.63;;;1.33;;
4700;SDS011;8724;51.272;6.554;2023-02-26T03:19:35;4.43;;;1.77;;
4700;SDS011;8724;51.272;6.554;2023-02-26T03:22:10;1.50;;;1.40;;
4700;SDS011;8724;51.272;6.554;2023-02-26T03:24:56;3.33;;;1.47;;
4700;SDS011;8724;51.272;6.554;2023-02-26T03:27:33;2.83;;;1.57;;
4700;SDS011;8724;51.272;6.554;2023-02-26T03:30:07;3.80;;;1.43;;
4700;SDS011;8724;51.272;6.554;2023-02-26T03:32:49;1.37;;;1.27;;
4700;SDS011;8724;51.272;6.554;2023-02-26T03:35:24;2.30;;;1.47;;
4700;SDS011;8724;51.272;6.554;2023-02-26T03:37:57;1.80;;;1.70;;
4700;SDS011;8724;51.272;6.554;2023-02-26T03:40:29;2.57;;;1.30;;
4700;SDS011;8724;51.272;6.554;2023-02-26T03:43:03;2.23;;;1.50;;
4700;SDS011;8724;51.272;6.554;2023-02-26T03:45:36;1.50;;;1.17;;
4700;SDS011;8724;51.272;6.554;2023-02-26T03:48:08;1.47;;;1.37;;
4700;SDS011;8724;51.272;6.554;2023-02-26T03:50:41;4.17;;;1.40;;
4700;SDS011;8724;51.272;6.554;2023-02-26T03:53:20;3.90;;;1.43;;
4700;SDS011;8724;51.272;6.554;2023-02-26T03:56:01;1.20;;;1.10;;
4700;SDS011;8724;51.272;6.554;2023-02-26T03:58:52;2.40;;;1.43;;
4700;SDS011;8724;51.272;6.554;2023-02-26T04:01:40;1.97;;;1.20;;
4700;SDS011;8724;51.272;6.554;2023-02-26T04:04:15;2.27;;;1.30;;
4700;SDS011;8724;51.272;6.554;2023-02-26T04:06:47;3.47;;;1.50;;
4700;SDS011;8724;51.272;6.554;2023-02-26T04:09:19;2.13;;;1.30;;
4700;SDS011;8724;51.272;6.554;2023-02-26T04:11:48;1.23;;;1.13;;
4700;SDS011;8724;51.272;6.554;2023-02-26T04:14:17;1.87;;;1.30;;
4700;SDS011;8724;51.272;6.554;2023-02-26T04:16:46;2.37;;;1.50;;
4700;SDS011;8724;51.272;6.554;2023-02-26T04:19:16;2.60;;;1.47;;
4700;SDS011;8724;51.272;6.554;2023-02-26T04:21:45;3.63;;;1.60;;
4700;SDS011;8724;51.272;6.554;2023-02-26T04:24:15;5.47;;;1.83;;
4700;SDS011;8724;51.272;6.554;2023-02-26T04:26:43;2.60;;;1.40;;
4700;SDS011;8724;51.272;6.554;2023-02-26T04:29:12;2.60;;;1.50;;
4700;SDS011;8724;51.272;6.554;2023-02-26T04:31:41;2.77;;;1.70;;
4700;SDS011;8724;51.272;6.554;2023-02-26T04:34:09;4.90;;;1.93;;
4700;SDS011;8724;51.272;6.554;2023-02-26T04:36:40;2.30;;;1.23;;
4700;SDS011;8724;51.272;6.554;2023-02-26T04:39:08;2.83;;;1.30;;
4700;SDS011;8724;51.272;6.554;2023-02-26T04:41:37;3.47;;;1.40;;
4700;SDS011;8724;51.272;6.554;2023-02-26T04:44:06;6.10;;;1.60;;
4700;SDS011;8724;51.272;6.554;2023-02-26T04:46:38;2.90;;;1.50;;
4700;SDS011;8724;51.272;6.554;2023-02-26T04:49:07;2.60;;;1.30;;
4700;SDS011;8724;51.272;6.554;2023-02-26T04:51:37;2.47;;;1.40;;
4700;SDS011;8724;51.272;6.554;2023-02-26T04:54:07;1.20;;;1.10;;
4700;SDS011;8724;51.272;6.554;2023-02-26T04:56:35;2.13;;;1.23;;
4700;SDS011;8724;51.272;6.554;2023-02-26T04:59:04;3.30;;;1.83;;
4700;SDS011;8724;51.272;6.554;2023-02-26T05:01:33;25.07;;;18.20;;
4700;SDS011;8724;51.272;6.554;2023-02-26T05:04:03;14.97;;;11.47;;
4700;SDS011;8724;51.272;6.554;2023-02-26T05:06:33;13.40;;;8.00;;
4700;SDS011;8724;51.272;6.554;2023-02-26T05:09:02;14.93;;;11.50;;
4700;SDS011;8724;51.272;6.554;2023-02-26T05:11:31;8.60;;;5.10;;
4700;SDS011;8724;51.272;6.554;2023-02-26T05:13:59;3.93;;;2.30;;
4700;SDS011;8724;51.272;6.554;2023-02-26T05:16:28;2.63;;;1.70;;
4700;SDS011;8724;51.272;6.554;2023-02-26T05:18:56;3.60;;;1.50;;
4700;SDS011;8724;51.272;6.554;2023-02-26T05:21:24;3.53;;;1.40;;
4700;SDS011;8724;51.272;6.554;2023-02-26T05:23:53;1.43;;;1.17;;
4700;SDS011;8724;51.272;6.554;2023-02-26T05:26:22;2.93;;;1.47;;
4700;SDS011;8724;51.272;6.554;2023-02-26T05:28:51;4.60;;;1.83;;
4700;SDS011;8724;51.272;6.554;2023-02-26T05:31:19;2.67;;;1.40;;
4700;SDS011;8724;51.272;6.554;2023-02-26T05:33:48;1.73;;;1.03;;
4700;SDS011;8724;51.272;6.554;2023-02-26T05:36:16;1.47;;;1.37;;
4700;SDS011;8724;51.272;6.554;2023-02-26T05:38:44;3.07;;;1.40;;
4700;SDS011;8724;51.272;6.554;2023-02-26T05:41:13;4.10;;;1.63;;
4700;SDS011;8724;51.272;6.554;2023-02-26T05:43:42;2.13;;;1.60;;
4700;SDS011;8724;51.272;6.554;2023-02-26T05:46:11;3.27;;;1.50;;
4700;SDS011;8724;51.272;6.554;2023-02-26T05:48:39;2.07;;;1.30;;
4700;SDS011;8724;51.272;6.554;2023-02-26T05:51:11;2.47;;;1.70;;
4700;SDS011;8724;51.272;6.554;2023-02-26T05:53:39;2.70;;;1.67;;
4700;SDS011;8724;51.272;6.554;2023-02-26T05:56:07;2.77;;;1.63;;
4700;SDS011;8724;51.272;6.554;2023-02-26T05:58:36;2.57;;;1.33;;
4700;SDS011;8724;51.272;6.554;2023-02-26T06:01:05;2.23;;;1.37;;
4700;SDS011;8724;51.272;6.554;2023-02-26T06:03:34;4.27;;;1.77;;
4700;SDS011;8724;51.272;6.554;2023-02-26T06:06:02;3.37;;;1.70;;
4700;SDS011;8724;51.272;6.554;2023-02-26T06:08:31;5.50;;;1.60;;
4700;SDS011;8724;51.272;6.554;2023-02-26T06:10:59;1.93;;;1.20;;
4700;SDS011;8724;51.272;6.554;2023-02-26T06:13:27;3.97;;;1.60;;
4700;SDS011;8724;51.272;6.554;2023-02-26T06:15:56;4.37;;;1.50;;
4700;SDS011;8724;51.272;6.554;2023-02-26T06:18:26;5.27;;;1.47;;
4700;SDS011;8724;51.272;6.554;2023-02-26T06:20:54;8.37;;;1.33;;
4700;SDS011;8724;51.272;6.554;2023-02-26T06:23:22;2.30;;;1.30;;
4700;SDS011;8724;51.272;6.554;2023-02-26T06:25:51;3.73;;;1.40;;
4700;SDS011;8724;51.272;6.554;2023-02-26T06:28:19;2.70;;;1.90;;
4700;SDS011;8724;51.272;6.554;2023-02-26T06:30:50;2.03;;;1.33;;
4700;SDS011;8724;51.272;6.554;2023-02-26T06:33:19;2.23;;;1.37;;
4700;SDS011;8724;51.272;6.554;2023-02-26T06:35:49;9.90;;;5.70;;
4700;SDS011;8724;51.272;6.554;2023-02-26T06:38:18;25.90;;;17.17;;
4700;SDS011;8724;51.272;6.554;2023-02-26T06:40:47;6.37;;;3.40;;
4700;SDS011;8724;51.272;6.554;2023-02-26T06:43:15;4.67;;;2.27;;
4700;SDS011;8724;51.272;6.554;2023-02-26T06:45:43;5.93;;;2.03;;
4700;SDS011;8724;51.272;6.554;2023-02-26T06:48:12;2.17;;;1.33;;
4700;SDS011;8724;51.272;6.554;2023-02-26T06:50:40;3.53;;;1.60;;
4700;SDS011;8724;51.272;6.554;2023-02-26T06:53:10;2.40;;;1.33;;
4700;SDS011;8724;51.272;6.554;2023-02-26T06:55:41;4.40;;;2.00;;
4700;SDS011;8724;51.272;6.554;2023-02-26T06:58:11;4.67;;;1.77;;
4700;SDS011;8724;51.272;6.554;2023-02-26T07:00:40;4.17;;;1.97;;
4700;SDS011;8724;51.272;6.554;2023-02-26T07:03:09;4.80;;;2.57;;
4700;SDS011;8724;51.272;6.554;2023-02-26T07:05:39;4.97;;;2.80;;
4700;SDS011;8724;51.272;6.554;2023-02-26T07:08:08;7.30;;;3.30;;
4700;SDS011;8724;51.272;6.554;2023-02-26T07:10:38;8.90;;;3.50;;
4700;SDS011;8724;51.272;6.554;2023-02-26T07:13:07;5.77;;;3.03;;
4700;SDS011;8724;51.272;6.554;2023-02-26T07:15:36;8.93;;;2.90;;
4700;SDS011;8724;51.272;6.554;2023-02-26T07:18:04;6.10;;;2.83;;
4700;SDS011;8724;51.272;6.554;2023-02-26T07:20:33;5.50;;;2.73;;
4700;SDS011;8724;51.272;6.554;2023-02-26T07:23:01;5.83;;;2.27;;
4700;SDS011;8724;51.272;6.554;2023-02-26T07:25:29;4.20;;;2.33;;
4700;SDS011;8724;51.272;6.554;2023-02-26T07:27:59;2.57;;;1.73;;
4700;SDS011;8724;51.272;6.554;2023-02-26T07:30:27;20.57;;;14.07;;
4700;SDS011;8724;51.272;6.554;2023-02-26T07:32:56;29.93;;;20.50;;
4700;SDS011;8724;51.272;6.554;2023-02-26T07:35:24;12.47;;;8.43;;
4700;SDS011;8724;51.272;6.554;2023-02-26T07:37:53;10.97;;;5.40;;
4700;SDS011;8724;51.272;6.554;2023-02-26T07:40:21;4.83;;;2.40;;
4700;SDS011;8724;51.272;6.554;2023-02-26T07:42:50;2.80;;;2.23;;
4700;SDS011;8724;51.272;6.554;2023-02-26T07:45:19;3.60;;;1.70;;
4700;SDS011;8724;51.272;6.554;2023-02-26T07:47:48;4.60;;;2.07;;
4700;SDS011;8724;51.272;6.554;2023-02-26T07:50:17;1.93;;;1.83;;
4700;SDS011;8724;51.272;6.554;2023-02-26T07:52:46;4.30;;;2.23;;
4700;SDS011;8724;51.272;6.554;2023-02-26T07:55:15;5.13;;;2.73;;
4700;SDS011;8724;51.272;6.554;2023-02-26T07:57:43;7.17;;;2.57;;
4700;SDS011;8724;51.272;6.554;2023-02-26T08:00:12;7.23;;;2.57;;
4700;SDS011;8724;51.272;6.554;2023-02-26T08:02:43;6.10;;;2.50;;
4700;SDS011;8724;51.272;6.554;2023-02-26T08:05:11;3.50;;;2.37;;
4700;SDS011;8724;51.272;6.554;2023-02-26T08:07:39;6.93;;;2.43;;
4700;SDS011;8724;51.272;6.554;2023-02-26T08:10:08;5.03;;;2.90;;
4700;SDS011;8724;51.272;6.554;2023-02-26T08:12:37;3.23;;;2.30;;
4700;SDS011;8724;51.272;6.554;2023-02-26T08:15:06;3.63;;;2.87;;
4700;SDS011;8724;51.272;6.554;2023-02-26T08:17:36;2.60;;;1.97;;
4700;SDS011;8724;51.272;6.554;2023-02-26T08:20:06;3.87;;;2.00;;
4700;SDS011;8724;51.272;6.554;2023-02-26T08:22:35;2.40;;;1.80;;
4700;SDS011;8724;51.272;6.554;2023-02-26T08:25:04;5.03;;;2.50;;
4700;SDS011;8724;51.272;6.554;2023-02-26T08:27:34;3.80;;;2.57;;
4700;SDS011;8724;51.272;6.554;2023-02-26T08:30:02;4.23;;;2.10;;
4700;SDS011;8724;51.272;6.554;2023-02-26T08:32:33;3.03;;;1.93;;
4700;SDS011;8724;51.272;6.554;2023-02-26T08:35:01;5.07;;;2.50;;
4700;SDS011;8724;51.272;6.554;2023-02-26T08:37:31;6.83;;;3.30;;
4700;SDS011;8724;51.272;6.554;2023-02-26T08:39:59;3.73;;;2.17;;
4700;SDS011;8724;51.272;6.554;2023-02-26T08:42:28;2.00;;;1.80;;
4700;SDS011;8724;51.272;6.554;2023-02-26T08:44:57;8.00;;;2.80;;
4700;SDS011;8724;51.272;6.554;2023-02-26T08:47:25;4.60;;;2.17;;
4700;SDS011;8724;51.272;6.554;2023-02-26T08:49:54;4.03;;;2.90;;
4700;SDS011;8724;51.272;6.554;2023-02-26T08:52:24;4.90;;;2.80;;
4700;SDS011;8724;51.272;6.554;2023-02-26T08:54:54;4.90;;;2.70;;
4700;SDS011;8724;51.272;6.554;2023-02-26T08:57:22;3.63;;;2.10;;
4700;SDS011;8724;51.272;6.554;2023-02-26T08:59:51;2.30;;;2.10;;
4700;SDS011;8724;51.272;6.554;2023-02-26T09:02:19;5.97;;;3.37;;
4700;SDS011;8724;51.272;6.554;2023-02-26T09:04:48;10.50;;;7.63;;
4700;SDS011;8724;51.272;6.554;2023-02-26T09:07:16;8.63;;;5.30;;
4700;SDS011;8724;51.272;6.554;2023-02-26T09:09:45;7.57;;;3.03;;
4700;SDS011;8724;51.272;6.554;2023-02-26T09:12:14;2.20;;;1.60;;
4700;SDS011;8724;51.272;6.554;2023-02-26T09:14:43;3.60;;;1.90;;
4700;SDS011;8724;51.272;6.554;2023-02-26T09:17:12;2.10;;;1.67;;
4700;SDS011;8724;51.272;6.554;2023-02-26T09:19:40;4.47;;;2.10;;
4700;SDS011;8724;51.272;6.554;2023-02-26T09:22:08;3.47;;;1.57;;
4700;SDS011;8724;51.272;6.554;2023-02-26T09:24:37;2.07;;;1.70;;
4700;SDS011;8724;51.272;6.554;2023-02-26T09:27:05;3.73;;;1.73;;
4700;SDS011;8724;51.272;6.554;2023-02-26T09:29:35;2.67;;;2.00;;
4700;SDS011;8724;51.272;6.554;2023-02-26T09:32:03;2.60;;;1.50;;
4700;SDS011;8724;51.272;6.554;2023-02-26T09:34:34;3.37;;;1.90;;
4700;SDS011;8724;51.272;6.554;2023-02-26T09:37:03;3.27;;;1.70;;
4700;SDS011;8724;51.272;6.554;2023-02-26T09:39:33;6.10;;;2.00;;
4700;SDS011;8724;51.272;6.554;2023-02-26T09:42:03;3.47;;;2.07;;
4700;SDS011;8724;51.272;6.554;2023-02-26T09:44:39;2.60;;;1.80;;
4700;SDS011;8724;51.272;6.554;2023-02-26T09:47:10;2.00;;;1.47;;
4700;SDS011;8724;51.272;6.554;2023-02-26T09:49:46;3.83;;;1.73;;
4700;SDS011;8724;51.272;6.554;2023-02-26T09:52:19;2.20;;;1.57;;
4700;SDS011;8724;51.272;6.554;2023-02-26T09:54:55;1.90;;;1.10;;
4700;SDS011;8724;51.272;6.554;2023-02-26T09:57:29;3.10;;;1.73;;
4700;SDS011;8724;51.272;6.554;2023-02-26T10:00:00;4.83;;;2.00;;
4700;SDS011;8724;51.272;6.554;2023-02-26T10:02:38;3.13;;;1.80;;
4700;SDS011;8724;51.272;6.554;2023-02-26T10:05:16;2.70;;;1.23;;
4700;SDS011;8724;51.272;6.554;2023-02-26T10:07:49;2.57;;;1.60;;
4700;SDS011;8724;51.272;6.554;2023-02-26T10:10:27;1.87;;;1.17;;
4700;SDS011;8724;51.272;6.554;2023-02-26T10:13:01;1.20;;;1.07;;
4700;SDS011;8724;51.272;6.554;2023-02-26T10:15:34;2.30;;;1.47;;
4700;SDS011;8724;51.272;6.554;2023-02-26T10:18:07;2.00;;;1.40;;
4700;SDS011;8724;51.272;6.554;2023-02-26T10:20:38;1.83;;;1.20;;
4700;SDS011;8724;51.272;6.554;2023-02-26T10:23:19;2.30;;;1.40;;
4700;SDS011;8724;51.272;6.554;2023-02-26T10:25:52;2.23;;;1.60;;
4700;SDS011;8724;51.272;6.554;2023-02-26T10:28:34;1.73;;;1.23;;
4700;SDS011;8724;51.272;6.554;2023-02-26T10:31:23;2.97;;;1.67;;
4700;SDS011;8724;51.272;6.554;2023-02-26T10:34:04;1.60;;;1.20;;
4700;SDS011;8724;51.272;6.554;2023-02-26T10:36:44;1.50;;;1.40;;
4700;SDS011;8724;51.272;6.554;2023-02-26T10:39:20;1.70;;;1.40;;
4700;SDS011;8724;51.272;6.554;2023-02-26T10:41:53;19.63;;;13.90;;
4700;SDS011;8724;51.272;6.554;2023-02-26T10:44:26;16.80;;;12.97;;
4700;SDS011;8724;51.272;6.554;2023-02-26T10:47:02;10.60;;;7.60;;
4700;SDS011;8724;51.272;6.554;2023-02-26T10:49:46;6.90;;;3.70;;
4700;SDS011;8724;51.272;6.554;2023-02-26T10:52:22;2.70;;;1.60;;
4700;SDS011;8724;51.272;6.554;2023-02-26T10:55:00;5.03;;;1.30;;
4700;SDS011;8724;51.272;6.554;2023-02-26T10:57:46;2.30;;;0.90;;
4700;SDS011;8724;51.272;6.554;2023-02-26T11:00:18;2.70;;;1.00;;
4700;SDS011;8724;51.272;6.554;2023-02-26T11:02:50;1.13;;;0.90;;
4700;SDS011;8724;51.272;6.554;2023-02-26T11:05:21;1.73;;;0.80;;
4700;SDS011;8724;51.272;6.554;2023-02-26T11:07:53;1.20;;;1.10;;
4700;SDS011;8724;51.272;6.554;2023-02-26T11:10:24;1.90;;;1.00;;
4700;SDS011;8724;51.272;6.554;2023-02-26T11:12:54;1.70;;;1.10;;
4700;SDS011;8724;51.272;6.554;2023-02-26T11:15:24;1.80;;;1.10;;
4700;SDS011;8724;51.272;6.554;2023-02-26T11:17:55;1.87;;;1.00;;
4700;SDS011;8724;51.272;6.554;2023-02-26T11:20:27;1.93;;;1.27;;
4700;SDS011;8724;51.272;6.554;2023-02-26T11:23:01;2.97;;;1.20;;
4700;SDS011;8724;51.272;6.554;2023-02-26T11:25:31;1.30;;;0.80;;
4700;SDS011;8724;51.272;6.554;2023-02-26T11:28:02;1.70;;;1.10;;
4700;SDS011;8724;51.272;6.554;2023-02-26T11:30:34;4.03;;;1.40;;
4700;SDS011;8724;51.272;6.554;2023-02-26T11:33:12;1.97;;;1.70;;
4700;SDS011;8724;51.272;6.554;2023-02-26T11:35:44;1.80;;;1.20;;
4700;SDS011;8724;51.272;6.554;2023-02-26T11:38:15;1.27;;;1.17;;
4700;SDS011;8724;51.272;6.554;2023-02-26T11:40:48;1.53;;;1.43;;
4700;SDS011;8724;51.272;6.554;2023-02-26T11:43:20;1.73;;;1.10;;
4700;SDS011;8724;51.272;6.554;2023-02-26T11:45:51;4.57;;;1.10;;
4700;SDS011;8724;51.272;6.554;2023-02-26T11:48:25;1.20;;;1.10;;
4700;SDS011;8724;51.272;6.554;2023-02-26T11:50:59;1.90;;;0.97;;
4700;SDS011;8724;51.272;6.554;2023-02-26T11:53:33;3.67;;;2.50;;
4700;SDS011;8724;51.272;6.554;2023-02-26T11:56:03;7.87;;;5.73;;
4700;SDS011;8724;51.272;6.554;2023-02-26T11:58:38;11.13;;;7.10;;
4700;SDS011;8724;51.272;6.554;2023-02-26T12:01:08;2.93;;;1.83;;
4700;SDS011;8724;51.272;6.554;2023-02-26T12:03:42;2.23;;;1.30;;
4700;SDS011;8724;51.272;6.554;2023-02-26T12:06:15;1.00;;;0.80;;
4700;SDS011;8724;51.272;6.554;2023-02-26T12:08:45;2.33;;;1.20;;
4700;SDS011;8724;51.272;6.554;2023-02-26T12:11:17;1.23;;;1.00;;
4700;SDS011;8724;51.272;6.554;2023-02-26T12:14:25;1.47;;;1.10;;
4700;SDS011;8724;51.272;6.554;2023-02-26T12:17:11;1.63;;;0.90;;
4700;SDS011;8724;51.272;6.554;2023-02-26T12:19:50;2.00;;;1.07;;
4700;SDS011;8724;51.272;6.554;2023-02-26T12:22:26;1.47;;;1.07;;
4700;SDS011;8724;51.272;6.554;2023-02-26T12:25:21;1.80;;;1.40;;
4700;SDS011;8724;51.272;6.554;2023-02-26T12:31:12;1.60;;;0.97;;
4700;SDS011;8724;51.272;6.554;2023-02-26T12:33:58;0.80;;;0.80;;
4700;SDS011;8724;51.272;6.554;2023-02-26T12:36:43;2.00;;;1.10;;
4700;SDS011;8724;51.272;6.554;2023-02-26T12:39:30;0.80;;;0.80;;
4700;SDS011;8724;51.272;6.554;2023-02-26T12:42:09;1.60;;;0.90;;
4700;SDS011;8724;51.272;6.554;2023-02-26T12:44:52;2.57;;;1.50;;
4700;SDS011;8724;51.272;6.554;2023-02-26T12:47:44;3.63;;;1.67;;
4700;SDS011;8724;51.272;6.554;2023-02-26T12:50:25;1.87;;;1.57;;
4700;SDS011;8724;51.272;6.554;2023-02-26T12:53:09;1.87;;;1.50;;
4700;SDS011;8724;51.272;6.554;2023-02-26T12:55:50;2.30;;;1.13;;
4700;SDS011;8724;51.272;6.554;2023-02-26T12:58:37;1.40;;;1.30;;
4700;SDS011;8724;51.272;6.554;2023-02-26T13:01:19;2.30;;;1.43;;
4700;SDS011;8724;51.272;6.554;2023-02-26T13:04:13;0.80;;;0.80;;
4700;SDS011;8724;51.272;6.554;2023-02-26T13:09:51;2.30;;;1.20;;
4700;SDS011;8724;51.272;6.554;2023-02-26T13:12:29;1.77;;;0.80;;
4700;SDS011;8724;51.272;6.554;2023-02-26T13:15:09;2.30;;;0.97;;
4700;SDS011;8724;51.272;6.554;2023-02-26T13:17:50;3.80;;;1.20;;
4700;SDS011;8724;51.272;6.554;2023-02-26T13:20:27;1.37;;;0.87;;
4700;SDS011;8724;51.272;6.554;2023-02-26T13:22:57;1.37;;;1.00;;
4700;SDS011;8724;51.272;6.554;2023-02-26T13:25:32;4.33;;;1.20;;
4700;SDS011;8724;51.272;6.554;2023-02-26T13:28:05;1.47;;;1.07;;
4700;SDS011;8724;51.272;6.554;2023-02-26T13:30:44;3.67;;;1.00;;
4700;SDS011;8724;51.272;6.554;2023-02-26T13:33:16;1.73;;;1.13;;
4700;SDS011;8724;51.272;6.554;2023-02-26T13:35:47;1.77;;;1.30;;
4700;SDS011;8724;51.272;6.554;2023-02-26T13:38:20;1.53;;;1.00;;
4700;SDS011;8724;51.272;6.554;2023-02-26T13:40:59;0.80;;;0.60;;
4700;SDS011;8724;51.272;6.554;2023-02-26T13:43:37;1.20;;;1.10;;
4700;SDS011;8724;51.272;6.554;2023-02-26T13:46:21;1.83;;;0.87;;
4700;SDS011;8724;51.272;6.554;2023-02-26T13:48:57;0.83;;;0.83;;
4700;SDS011;8724;51.272;6.554;2023-02-26T13:51:34;7.10;;;4.77;;
4700;SDS011;8724;51.272;6.554;2023-02-26T13:54:06;15.30;;;8.83;;
4700;SDS011;8724;51.272;6.554;2023-02-26T13:57:04;4.80;;;2.33;;
4700;SDS011;8724;51.272;6.554;2023-02-26T13:59:46;1.67;;;1.57;;
4700;SDS011;8724;51.272;6.554;2023-02-26T14:11:26;1.50;;;1.10;;
4700;SDS011;8724;51.272;6.554;2023-02-26T14:14:09;1.33;;;1.17;;
4700;SDS011;8724;51.272;6.554;2023-02-26T14:16:41;1.33;;;1.10;;
4700;SDS011;8724;51.272;6.554;2023-02-26T14:19:18;1.50;;;0.80;;
4700;SDS011;8724;51.272;6.554;2023-02-26T14:21:50;1.30;;;0.70;;
4700;SDS011;8724;51.272;6.554;2023-02-26T14:24:34;1.93;;;0.97;;
4700;SDS011;8724;51.272;6.554;2023-02-26T14:27:21;2.53;;;1.00;;
4700;SDS011;8724;51.272;6.554;2023-02-26T14:30:14;1.63;;;1.00;;
4700;SDS011;8724;51.272;6.554;2023-02-26T14:32:46;4.33;;;1.30;;
4700;SDS011;8724;51.272;6.554;2023-02-26T14:35:17;1.13;;;1.03;;
4700;SDS011;8724;51.272;6.554;2023-02-26T14:37:54;2.20;;;1.17;;
4700;SDS011;8724;51.272;6.554;2023-02-26T14:40:25;1.60;;;0.90;;
4700;SDS011;8724;51.272;6.554;2023-02-26T14:43:01;2.57;;;0.80;;
4700;SDS011;8724;51.272;6.554;2023-02-26T14:45:34;1.27;;;0.97;;
4700;SDS011;8724;51.272;6.554;2023-02-26T14:48:05;1.60;;;1.07;;
4700;SDS011;8724;51.272;6.554;2023-02-26T14:50:41;1.70;;;0.90;;
4700;SDS011;8724;51.272;6.554;2023-02-26T14:56:16;2.90;;;0.90;;
4700;SDS011;8724;51.272;6.554;2023-02-26T14:59:04;2.27;;;1.10;;
4700;SDS011;8724;51.272;6.554;2023-02-26T15:01:46;0.97;;;0.93;;
4700;SDS011;8724;51.272;6.554;2023-02-26T15:04:25;1.07;;;0.97;;
4700;SDS011;8724;51.272;6.554;2023-02-26T15:07:19;1.57;;;1.03;;
4700;SDS011;8724;51.272;6.554;2023-02-26T15:10:08;1.43;;;1.27;;
4700;SDS011;8724;51.272;6.554;2023-02-26T15:12:58;2.07;;;0.87;;
4700;SDS011;8724;51.272;6.554;2023-02-26T15:15:49;1.43;;;1.10;;
4700;SDS011;8724;51.272;6.554;2023-02-26T15:18:30;1.17;;;1.00;;
4700;SDS011;8724;51.272;6.554;2023-02-26T15:21:14;1.90;;;1.07;;
4700;SDS011;8724;51.272;6.554;2023-02-26T15:23:50;1.03;;;1.00;;
4700;SDS011;8724;51.272;6.554;2023-02-26T15:26:22;1.10;;;0.90;;
4700;SDS011;8724;51.272;6.554;2023-02-26T15:28:53;2.27;;;1.40;;
4700;SDS011;8724;51.272;6.554;2023-02-26T15:31:27;1.47;;;1.03;;
4700;SDS011;8724;51.272;6.554;2023-02-26T15:33:59;1.17;;;1.00;;
4700;SDS011;8724;51.272;6.554;2023-02-26T15:36:29;2.30;;;1.03;;
4700;SDS011;8724;51.272;6.554;2023-02-26T15:38:58;3.20;;;1.20;;
4700;SDS011;8724;51.272;6.554;2023-02-26T15:41:29;1.23;;;0.97;;
4700;SDS011;8724;51.272;6.554;2023-02-26T15:43:59;1.33;;;1.10;;
4700;SDS011;8724;51.272;6.554;2023-02-26T15:46:31;4.07;;;3.70;;
4700;SDS011;8724;51.272;6.554;2023-02-26T15:49:04;8.20;;;5.90;;
4700;SDS011;8724;51.272;6.554;2023-02-26T15:51:36;8.17;;;5.80;;
4700;SDS011;8724;51.272;6.554;2023-02-26T15:54:04;2.93;;;1.73;;
4700;SDS011;8724;51.272;6.554;2023-02-26T15:56:34;1.40;;;1.10;;
4700;SDS011;8724;51.272;6.554;2023-02-26T15:59:08;2.77;;;1.30;;
4700;SDS011;8724;51.272;6.554;2023-02-26T16:01:40;2.67;;;0.93;;
4700;SDS011;8724;51.272;6.554;2023-02-26T16:04:14;5.50;;;0.90;;
4700;SDS011;8724;51.272;6.554;2023-02-26T16:06:45;1.17;;;0.93;;
4700;SDS011;8724;51.272;6.554;2023-02-26T16:09:16;2.80;;;1.33;;
4700;SDS011;8724;51.272;6.554;2023-02-26T16:11:46;4.10;;;1.20;;
4700;SDS011;8724;51.272;6.554;2023-02-26T16:14:17;1.50;;;1.10;;